sensor_id;sensor_type;location;lat;lon;timestamp;temperature;humidity
25352;DHT22;13304;48.464;8.712;2023-07-24T00:01:07;22.40;59.60
25352;DHT22;13304;48.464;8.712;2023-07-24T00:03:35;22.40;59.80
25352;DHT22;13304;48.464;8.712;2023-07-24T00:06:04;22.30;60.00
25352;DHT22;13304;48.464;8.712;2023-07-24T00:08:29;22.30;60.30
25352;DHT22;13304;48.464;8.712;2023-07-24T00:10:55;22.30;60.20
25352;DHT22;13304;48.464;8.712;2023-07-24T00:13:21;22.30;60.40
25352;DHT22;13304;48.464;8.712;2023-07-24T00:15:46;22.30;60.50
25352;DHT22;13304;48.464;8.712;2023-07-24T00:18:17;22.30;60.60
25352;DHT22;13304;48.464;8.712;2023-07-24T00:20:45;22.30;60.80
25352;DHT22;13304;48.464;8.712;2023-07-24T00:23:12;22.30;60.90
25352;DHT22;13304;48.464;8.712;2023-07-24T00:25:41;22.30;61.80
25352;DHT22;13304;48.464;8.712;2023-07-24T00:28:08;22.30;61.40
25352;DHT22;13304;48.464;8.712;2023-07-24T00:30:34;22.30;61.30
25352;DHT22;13304;48.464;8.712;2023-07-24T00:33:02;22.30;61.60
25352;DHT22;13304;48.464;8.712;2023-07-24T00:35:28;22.30;62.00
25352;DHT22;13304;48.464;8.712;2023-07-24T00:37:54;22.30;62.00
25352;DHT22;13304;48.464;8.712;2023-07-24T00:40:24;22.30;62.10
25352;DHT22;13304;48.464;8.712;2023-07-24T00:42:50;22.30;62.10
25352;DHT22;13304;48.464;8.712;2023-07-24T00:45:18;22.30;62.20
25352;DHT22;13304;48.464;8.712;2023-07-24T00:47:47;22.30;62.00
25352;DHT22;13304;48.464;8.712;2023-07-24T00:50:15;22.30;62.20
25352;DHT22;13304;48.464;8.712;2023-07-24T00:52:43;22.30;62.20
25352;DHT22;13304;48.464;8.712;2023-07-24T00:55:10;22.20;61.70
25352;DHT22;13304;48.464;8.712;2023-07-24T00:57:40;22.20;61.50
25352;DHT22;13304;48.464;8.712;2023-07-24T01:00:06;22.20;61.50
25352;DHT22;13304;48.464;8.712;2023-07-24T01:02:34;22.20;61.30
25352;DHT22;13304;48.464;8.712;2023-07-24T01:05:00;22.10;61.10
25352;DHT22;13304;48.464;8.712;2023-07-24T01:07:29;22.10;61.20
25352;DHT22;13304;48.464;8.712;2023-07-24T01:09:55;22.00;61.50
25352;DHT22;13304;48.464;8.712;2023-07-24T01:12:39;22.00;61.40
25352;DHT22;13304;48.464;8.712;2023-07-24T01:15:19;22.00;62.30
25352;DHT22;13304;48.464;8.712;2023-07-24T01:17:50;21.90;62.10
25352;DHT22;13304;48.464;8.712;2023-07-24T01:20:19;21.80;61.50
25352;DHT22;13304;48.464;8.712;2023-07-24T01:23:21;21.90;61.50
25352;DHT22;13304;48.464;8.712;2023-07-24T01:25:54;21.90;62.50
25352;DHT22;13304;48.464;8.712;2023-07-24T01:28:23;21.90;62.30
25352;DHT22;13304;48.464;8.712;2023-07-24T01:30:49;21.90;62.30
25352;DHT22;13304;48.464;8.712;2023-07-24T01:33:17;21.90;62.20
25352;DHT22;13304;48.464;8.712;2023-07-24T01:35:53;21.80;62.40
25352;DHT22;13304;48.464;8.712;2023-07-24T01:38:19;21.80;62.70
25352;DHT22;13304;48.464;8.712;2023-07-24T01:40:48;21.80;62.60
25352;DHT22;13304;48.464;8.712;2023-07-24T01:43:14;21.80;62.90
25352;DHT22;13304;48.464;8.712;2023-07-24T01:45:42;21.90;63.00
25352;DHT22;13304;48.464;8.712;2023-07-24T01:48:08;21.90;63.00
25352;DHT22;13304;48.464;8.712;2023-07-24T01:50:34;21.90;63.00
25352;DHT22;13304;48.464;8.712;2023-07-24T01:52:59;21.80;62.90
25352;DHT22;13304;48.464;8.712;2023-07-24T01:55:27;21.90;63.00
25352;DHT22;13304;48.464;8.712;2023-07-24T01:57:53;21.90;62.80
25352;DHT22;13304;48.464;8.712;2023-07-24T02:00:19;21.80;62.80
25352;DHT22;13304;48.464;8.712;2023-07-24T02:02:50;21.80;63.00
25352;DHT22;13304;48.464;8.712;2023-07-24T02:05:15;21.80;63.00
25352;DHT22;13304;48.464;8.712;2023-07-24T02:07:46;21.70;62.90
25352;DHT22;13304;48.464;8.712;2023-07-24T02:10:18;21.70;63.10
25352;DHT22;13304;48.464;8.712;2023-07-24T02:12:46;21.70;63.40
25352;DHT22;13304;48.464;8.712;2023-07-24T02:15:14;21.60;63.20
25352;DHT22;13304;48.464;8.712;2023-07-24T02:17:42;21.60;63.30
25352;DHT22;13304;48.464;8.712;2023-07-24T02:20:11;21.60;63.30
25352;DHT22;13304;48.464;8.712;2023-07-24T02:22:41;21.60;63.30
25352;DHT22;13304;48.464;8.712;2023-07-24T02:25:09;21.50;63.20
25352;DHT22;13304;48.464;8.712;2023-07-24T02:27:37;21.50;63.40
25352;DHT22;13304;48.464;8.712;2023-07-24T02:30:06;21.40;63.40
25352;DHT22;13304;48.464;8.712;2023-07-24T02:32:34;21.40;63.30
25352;DHT22;13304;48.464;8.712;2023-07-24T02:35:02;21.30;63.50
25352;DHT22;13304;48.464;8.712;2023-07-24T02:37:36;21.30;63.50
25352;DHT22;13304;48.464;8.712;2023-07-24T02:40:02;21.30;64.40
25352;DHT22;13304;48.464;8.712;2023-07-24T02:42:30;21.20;63.60
25352;DHT22;13304;48.464;8.712;2023-07-24T02:44:56;21.20;63.80
25352;DHT22;13304;48.464;8.712;2023-07-24T02:47:24;21.20;63.80
25352;DHT22;13304;48.464;8.712;2023-07-24T02:49:50;21.10;63.90
25352;DHT22;13304;48.464;8.712;2023-07-24T02:52:18;21.10;64.00
25352;DHT22;13304;48.464;8.712;2023-07-24T02:54:43;21.00;64.30
25352;DHT22;13304;48.464;8.712;2023-07-24T02:57:12;21.00;64.30
25352;DHT22;13304;48.464;8.712;2023-07-24T02:59:37;20.90;64.40
25352;DHT22;13304;48.464;8.712;2023-07-24T03:02:03;20.90;64.70
25352;DHT22;13304;48.464;8.712;2023-07-24T03:04:29;20.80;64.90
25352;DHT22;13304;48.464;8.712;2023-07-24T03:06:55;20.80;65.00
25352;DHT22;13304;48.464;8.712;2023-07-24T03:09:20;20.80;65.10
25352;DHT22;13304;48.464;8.712;2023-07-24T03:11:46;20.80;65.30
25352;DHT22;13304;48.464;8.712;2023-07-24T03:14:12;20.70;65.50
25352;DHT22;13304;48.464;8.712;2023-07-24T03:16:37;20.70;65.70
25352;DHT22;13304;48.464;8.712;2023-07-24T03:19:03;20.70;65.90
25352;DHT22;13304;48.464;8.712;2023-07-24T03:21:29;20.60;65.90
25352;DHT22;13304;48.464;8.712;2023-07-24T03:23:54;20.60;66.90
25352;DHT22;13304;48.464;8.712;2023-07-24T03:26:20;20.60;66.20
25352;DHT22;13304;48.464;8.712;2023-07-24T03:28:48;20.60;66.50
25352;DHT22;13304;48.464;8.712;2023-07-24T03:31:14;20.50;66.20
25352;DHT22;13304;48.464;8.712;2023-07-24T03:33:40;20.50;66.40
25352;DHT22;13304;48.464;8.712;2023-07-24T03:36:05;20.50;66.30
25352;DHT22;13304;48.464;8.712;2023-07-24T03:38:34;20.50;67.30
25352;DHT22;13304;48.464;8.712;2023-07-24T03:41:00;20.40;66.90
25352;DHT22;13304;48.464;8.712;2023-07-24T03:43:25;20.40;66.80
25352;DHT22;13304;48.464;8.712;2023-07-24T03:45:53;20.40;66.80
25352;DHT22;13304;48.464;8.712;2023-07-24T03:48:23;20.40;66.90
25352;DHT22;13304;48.464;8.712;2023-07-24T03:50:56;20.30;67.10
25352;DHT22;13304;48.464;8.712;2023-07-24T03:53:25;20.30;67.10
25352;DHT22;13304;48.464;8.712;2023-07-24T03:55:53;20.30;67.10
25352;DHT22;13304;48.464;8.712;2023-07-24T03:58:19;20.30;67.30
25352;DHT22;13304;48.464;8.712;2023-07-24T04:00:45;20.20;67.20
25352;DHT22;13304;48.464;8.712;2023-07-24T04:03:13;20.30;67.50
25352;DHT22;13304;48.464;8.712;2023-07-24T04:05:39;20.20;67.50
25352;DHT22;13304;48.464;8.712;2023-07-24T04:08:05;20.20;67.50
25352;DHT22;13304;48.464;8.712;2023-07-24T04:10:30;20.20;67.50
25352;DHT22;13304;48.464;8.712;2023-07-24T04:12:56;20.20;67.60
25352;DHT22;13304;48.464;8.712;2023-07-24T04:15:25;20.20;67.70
25352;DHT22;13304;48.464;8.712;2023-07-24T04:17:50;20.20;67.80
25352;DHT22;13304;48.464;8.712;2023-07-24T04:20:18;20.30;67.80
25352;DHT22;13304;48.464;8.712;2023-07-24T04:22:49;20.30;68.00
25352;DHT22;13304;48.464;8.712;2023-07-24T04:25:19;20.30;67.90
25352;DHT22;13304;48.464;8.712;2023-07-24T04:27:45;20.30;68.00
25352;DHT22;13304;48.464;8.712;2023-07-24T04:30:11;20.30;67.90
25352;DHT22;13304;48.464;8.712;2023-07-24T04:32:37;20.40;68.00
25352;DHT22;13304;48.464;8.712;2023-07-24T04:35:03;20.40;67.90
25352;DHT22;13304;48.464;8.712;2023-07-24T04:37:31;20.40;67.90
25352;DHT22;13304;48.464;8.712;2023-07-24T04:39:57;20.40;68.10
25352;DHT22;13304;48.464;8.712;2023-07-24T04:42:23;20.40;68.00
25352;DHT22;13304;48.464;8.712;2023-07-24T04:44:48;20.40;68.20
25352;DHT22;13304;48.464;8.712;2023-07-24T04:47:15;20.50;68.10
25352;DHT22;13304;48.464;8.712;2023-07-24T04:49:41;20.50;68.30
25352;DHT22;13304;48.464;8.712;2023-07-24T04:52:07;20.50;68.40
25352;DHT22;13304;48.464;8.712;2023-07-24T04:54:32;20.50;68.20
25352;DHT22;13304;48.464;8.712;2023-07-24T04:56:58;20.50;68.10
25352;DHT22;13304;48.464;8.712;2023-07-24T04:59:24;20.50;68.00
25352;DHT22;13304;48.464;8.712;2023-07-24T05:01:50;20.50;68.00
25352;DHT22;13304;48.464;8.712;2023-07-24T05:04:16;20.50;68.00
25352;DHT22;13304;48.464;8.712;2023-07-24T05:06:42;20.50;68.10
25352;DHT22;13304;48.464;8.712;2023-07-24T05:09:08;20.50;68.00
25352;DHT22;13304;48.464;8.712;2023-07-24T05:11:34;20.50;68.20
25352;DHT22;13304;48.464;8.712;2023-07-24T05:13:59;20.60;68.40
25352;DHT22;13304;48.464;8.712;2023-07-24T05:16:25;20.60;68.30
25352;DHT22;13304;48.464;8.712;2023-07-24T05:18:53;20.50;68.20
25352;DHT22;13304;48.464;8.712;2023-07-24T05:21:21;20.50;67.90
25352;DHT22;13304;48.464;8.712;2023-07-24T05:23:49;20.60;67.80
25352;DHT22;13304;48.464;8.712;2023-07-24T05:26:14;20.60;67.80
25352;DHT22;13304;48.464;8.712;2023-07-24T05:28:40;20.60;67.90
25352;DHT22;13304;48.464;8.712;2023-07-24T05:31:06;20.50;67.80
25352;DHT22;13304;48.464;8.712;2023-07-24T05:33:33;20.60;67.80
25352;DHT22;13304;48.464;8.712;2023-07-24T05:36:00;20.60;68.00
25352;DHT22;13304;48.464;8.712;2023-07-24T05:38:26;20.60;68.10
25352;DHT22;13304;48.464;8.712;2023-07-24T05:41:04;20.60;68.20
25352;DHT22;13304;48.464;8.712;2023-07-24T05:43:30;20.60;68.20
25352;DHT22;13304;48.464;8.712;2023-07-24T05:45:59;20.60;68.00
25352;DHT22;13304;48.464;8.712;2023-07-24T05:48:25;20.60;67.90
25352;DHT22;13304;48.464;8.712;2023-07-24T05:50:53;20.60;68.00
25352;DHT22;13304;48.464;8.712;2023-07-24T05:53:21;20.60;68.20
25352;DHT22;13304;48.464;8.712;2023-07-24T05:55:56;20.60;68.20
25352;DHT22;13304;48.464;8.712;2023-07-24T05:58:24;20.60;68.40
25352;DHT22;13304;48.464;8.712;2023-07-24T06:00:50;20.60;68.30
25352;DHT22;13304;48.464;8.712;2023-07-24T06:03:17;20.70;68.50
25352;DHT22;13304;48.464;8.712;2023-07-24T06:05:42;20.60;68.50
25352;DHT22;13304;48.464;8.712;2023-07-24T06:08:08;20.70;68.60
25352;DHT22;13304;48.464;8.712;2023-07-24T06:10:36;20.70;68.90
25352;DHT22;13304;48.464;8.712;2023-07-24T06:13:02;20.70;68.90
25352;DHT22;13304;48.464;8.712;2023-07-24T06:15:27;20.70;69.00
25352;DHT22;13304;48.464;8.712;2023-07-24T06:17:53;20.80;69.20
25352;DHT22;13304;48.464;8.712;2023-07-24T06:20:19;20.80;69.20
25352;DHT22;13304;48.464;8.712;2023-07-24T06:22:44;20.90;69.30
25352;DHT22;13304;48.464;8.712;2023-07-24T06:25:10;20.90;69.30
25352;DHT22;13304;48.464;8.712;2023-07-24T06:27:36;21.00;69.20
25352;DHT22;13304;48.464;8.712;2023-07-24T06:30:02;21.00;69.10
25352;DHT22;13304;48.464;8.712;2023-07-24T06:32:28;21.10;69.10
25352;DHT22;13304;48.464;8.712;2023-07-24T06:34:54;21.10;69.00
25352;DHT22;13304;48.464;8.712;2023-07-24T06:37:20;21.20;69.10
25352;DHT22;13304;48.464;8.712;2023-07-24T06:39:45;21.30;69.20
25352;DHT22;13304;48.464;8.712;2023-07-24T06:42:11;21.30;69.10
25352;DHT22;13304;48.464;8.712;2023-07-24T06:44:37;21.40;69.10
25352;DHT22;13304;48.464;8.712;2023-07-24T06:47:02;21.40;69.10
25352;DHT22;13304;48.464;8.712;2023-07-24T06:49:28;21.50;69.00
25352;DHT22;13304;48.464;8.712;2023-07-24T06:51:54;21.60;69.00
25352;DHT22;13304;48.464;8.712;2023-07-24T06:54:20;21.70;68.80
25352;DHT22;13304;48.464;8.712;2023-07-24T06:56:45;21.70;68.50
25352;DHT22;13304;48.464;8.712;2023-07-24T06:59:11;21.80;69.30
25352;DHT22;13304;48.464;8.712;2023-07-24T07:01:37;21.90;68.40
25352;DHT22;13304;48.464;8.712;2023-07-24T07:04:02;22.00;68.50
25352;DHT22;13304;48.464;8.712;2023-07-24T07:06:28;22.10;68.50
25352;DHT22;13304;48.464;8.712;2023-07-24T07:08:54;22.10;68.10
25352;DHT22;13304;48.464;8.712;2023-07-24T07:11:19;22.20;67.60
25352;DHT22;13304;48.464;8.712;2023-07-24T07:13:45;22.30;67.50
25352;DHT22;13304;48.464;8.712;2023-07-24T07:16:11;22.40;67.20
25352;DHT22;13304;48.464;8.712;2023-07-24T07:18:36;22.50;67.00
25352;DHT22;13304;48.464;8.712;2023-07-24T07:21:02;22.60;67.00
25352;DHT22;13304;48.464;8.712;2023-07-24T07:23:28;22.60;66.80
25352;DHT22;13304;48.464;8.712;2023-07-24T07:25:54;22.70;66.50
25352;DHT22;13304;48.464;8.712;2023-07-24T07:28:19;22.80;66.60
25352;DHT22;13304;48.464;8.712;2023-07-24T07:30:45;22.80;66.50
25352;DHT22;13304;48.464;8.712;2023-07-24T07:33:11;22.90;66.30
25352;DHT22;13304;48.464;8.712;2023-07-24T07:35:37;23.00;66.10
25352;DHT22;13304;48.464;8.712;2023-07-24T07:38:03;23.00;65.90
25352;DHT22;13304;48.464;8.712;2023-07-24T07:40:29;23.00;65.90
25352;DHT22;13304;48.464;8.712;2023-07-24T07:42:56;23.00;66.50
25352;DHT22;13304;48.464;8.712;2023-07-24T07:45:23;23.00;67.90
25352;DHT22;13304;48.464;8.712;2023-07-24T07:47:50;22.80;69.20
25352;DHT22;13304;48.464;8.712;2023-07-24T07:50:20;22.60;72.20
25352;DHT22;13304;48.464;8.712;2023-07-24T07:52:51;22.50;72.80
25352;DHT22;13304;48.464;8.712;2023-07-24T07:55:20;22.40;72.20
25352;DHT22;13304;48.464;8.712;2023-07-24T07:57:48;22.40;71.90
25352;DHT22;13304;48.464;8.712;2023-07-24T08:00:14;22.20;72.60
25352;DHT22;13304;48.464;8.712;2023-07-24T08:02:42;22.00;73.00
25352;DHT22;13304;48.464;8.712;2023-07-24T08:05:11;21.90;73.90
25352;DHT22;13304;48.464;8.712;2023-07-24T08:07:37;21.80;74.70
25352;DHT22;13304;48.464;8.712;2023-07-24T08:10:03;21.70;75.40
25352;DHT22;13304;48.464;8.712;2023-07-24T08:12:29;21.60;75.80
25352;DHT22;13304;48.464;8.712;2023-07-24T08:14:57;21.60;76.50
25352;DHT22;13304;48.464;8.712;2023-07-24T08:17:23;21.50;77.40
25352;DHT22;13304;48.464;8.712;2023-07-24T08:19:49;21.50;77.50
25352;DHT22;13304;48.464;8.712;2023-07-24T08:22:14;21.50;77.80
25352;DHT22;13304;48.464;8.712;2023-07-24T08:24:40;21.50;78.00
25352;DHT22;13304;48.464;8.712;2023-07-24T08:27:06;21.50;78.20
25352;DHT22;13304;48.464;8.712;2023-07-24T08:29:34;21.50;78.50
25352;DHT22;13304;48.464;8.712;2023-07-24T08:32:03;21.50;79.40
25352;DHT22;13304;48.464;8.712;2023-07-24T08:34:29;21.50;79.50
25352;DHT22;13304;48.464;8.712;2023-07-24T08:36:55;21.60;79.90
25352;DHT22;13304;48.464;8.712;2023-07-24T08:39:22;21.60;80.50
25352;DHT22;13304;48.464;8.712;2023-07-24T08:41:48;21.60;80.60
25352;DHT22;13304;48.464;8.712;2023-07-24T08:44:14;21.70;80.90
25352;DHT22;13304;48.464;8.712;2023-07-24T08:46:43;21.70;81.10
25352;DHT22;13304;48.464;8.712;2023-07-24T08:49:17;21.70;82.10
25352;DHT22;13304;48.464;8.712;2023-07-24T08:51:49;21.80;81.90
25352;DHT22;13304;48.464;8.712;2023-07-24T08:54:15;21.90;82.10
25352;DHT22;13304;48.464;8.712;2023-07-24T08:56:43;22.00;81.90
25352;DHT22;13304;48.464;8.712;2023-07-24T08:59:12;22.10;81.80
25352;DHT22;13304;48.464;8.712;2023-07-24T09:01:40;22.20;81.70
25352;DHT22;13304;48.464;8.712;2023-07-24T09:04:06;22.20;81.50
25352;DHT22;13304;48.464;8.712;2023-07-24T09:06:32;22.30;80.90
25352;DHT22;13304;48.464;8.712;2023-07-24T09:09:00;22.40;80.50
25352;DHT22;13304;48.464;8.712;2023-07-24T09:11:26;22.40;80.20
25352;DHT22;13304;48.464;8.712;2023-07-24T09:13:54;22.40;80.10
25352;DHT22;13304;48.464;8.712;2023-07-24T09:16:24;22.50;80.80
25352;DHT22;13304;48.464;8.712;2023-07-24T09:18:51;22.50;79.90
25352;DHT22;13304;48.464;8.712;2023-07-24T09:21:32;22.50;79.60
25352;DHT22;13304;48.464;8.712;2023-07-24T09:24:08;22.40;79.80
25352;DHT22;13304;48.464;8.712;2023-07-24T09:26:34;22.50;79.80
25352;DHT22;13304;48.464;8.712;2023-07-24T09:28:59;22.50;79.60
25352;DHT22;13304;48.464;8.712;2023-07-24T09:31:37;22.50;79.70
25352;DHT22;13304;48.464;8.712;2023-07-24T09:34:03;22.40;79.80
25352;DHT22;13304;48.464;8.712;2023-07-24T09:36:39;22.40;79.70
25352;DHT22;13304;48.464;8.712;2023-07-24T09:39:05;22.40;79.90
25352;DHT22;13304;48.464;8.712;2023-07-24T09:41:36;22.40;79.70
25352;DHT22;13304;48.464;8.712;2023-07-24T09:44:11;22.40;79.80
25352;DHT22;13304;48.464;8.712;2023-07-24T09:46:37;22.40;80.00
25352;DHT22;13304;48.464;8.712;2023-07-24T09:49:03;22.40;80.00
25352;DHT22;13304;48.464;8.712;2023-07-24T09:51:29;22.30;79.90
25352;DHT22;13304;48.464;8.712;2023-07-24T09:54:01;22.30;80.30
25352;DHT22;13304;48.464;8.712;2023-07-24T09:56:33;22.30;80.60
25352;DHT22;13304;48.464;8.712;2023-07-24T09:59:01;22.30;80.60
25352;DHT22;13304;48.464;8.712;2023-07-24T10:01:29;22.30;80.90
25352;DHT22;13304;48.464;8.712;2023-07-24T10:03:56;22.20;81.20
25352;DHT22;13304;48.464;8.712;2023-07-24T10:06:26;22.20;81.40
25352;DHT22;13304;48.464;8.712;2023-07-24T10:08:52;22.20;81.80
25352;DHT22;13304;48.464;8.712;2023-07-24T10:11:19;22.20;82.10
25352;DHT22;13304;48.464;8.712;2023-07-24T10:13:48;22.10;81.80
25352;DHT22;13304;48.464;8.712;2023-07-24T10:16:14;22.10;81.80
25352;DHT22;13304;48.464;8.712;2023-07-24T10:18:45;22.00;81.60
25352;DHT22;13304;48.464;8.712;2023-07-24T10:21:11;21.90;81.40
25352;DHT22;13304;48.464;8.712;2023-07-24T10:23:44;21.90;81.20
25352;DHT22;13304;48.464;8.712;2023-07-24T10:26:12;21.80;81.50
25352;DHT22;13304;48.464;8.712;2023-07-24T10:28:39;21.70;81.80
25352;DHT22;13304;48.464;8.712;2023-07-24T10:33:47;21.60;83.00
25352;DHT22;13304;48.464;8.712;2023-07-24T10:36:17;21.60;82.90
25352;DHT22;13304;48.464;8.712;2023-07-24T10:38:45;21.50;83.80
25352;DHT22;13304;48.464;8.712;2023-07-24T10:41:11;21.50;83.90
25352;DHT22;13304;48.464;8.712;2023-07-24T10:43:51;21.50;84.00
25352;DHT22;13304;48.464;8.712;2023-07-24T10:46:19;21.30;84.50
25352;DHT22;13304;48.464;8.712;2023-07-24T10:48:51;21.40;84.60
25352;DHT22;13304;48.464;8.712;2023-07-24T10:51:17;21.30;84.50
25352;DHT22;13304;48.464;8.712;2023-07-24T10:53:47;21.30;84.50
25352;DHT22;13304;48.464;8.712;2023-07-24T10:56:16;21.20;84.90
25352;DHT22;13304;48.464;8.712;2023-07-24T10:58:42;21.20;85.00
25352;DHT22;13304;48.464;8.712;2023-07-24T11:01:09;21.20;85.10
25352;DHT22;13304;48.464;8.712;2023-07-24T11:03:37;21.20;85.20
25352;DHT22;13304;48.464;8.712;2023-07-24T11:06:03;21.20;85.40
25352;DHT22;13304;48.464;8.712;2023-07-24T11:08:29;21.20;85.60
25352;DHT22;13304;48.464;8.712;2023-07-24T11:10:57;21.20;85.60
25352;DHT22;13304;48.464;8.712;2023-07-24T11:13:28;21.20;85.80
25352;DHT22;13304;48.464;8.712;2023-07-24T11:15:54;21.10;86.90
25352;DHT22;13304;48.464;8.712;2023-07-24T11:18:21;21.20;88.20
25352;DHT22;13304;48.464;8.712;2023-07-24T11:20:52;21.20;90.00
25352;DHT22;13304;48.464;8.712;2023-07-24T11:23:19;21.30;90.30
25352;DHT22;13304;48.464;8.712;2023-07-24T11:25:45;21.40;90.60
25352;DHT22;13304;48.464;8.712;2023-07-24T11:28:12;21.50;90.80
25352;DHT22;13304;48.464;8.712;2023-07-24T11:30:38;21.60;91.00
25352;DHT22;13304;48.464;8.712;2023-07-24T11:33:06;21.70;91.10
25352;DHT22;13304;48.464;8.712;2023-07-24T11:35:33;21.90;91.10
25352;DHT22;13304;48.464;8.712;2023-07-24T11:38:01;22.00;91.30
25352;DHT22;13304;48.464;8.712;2023-07-24T11:40:34;22.10;90.70
25352;DHT22;13304;48.464;8.712;2023-07-24T11:43:00;22.30;90.60
25352;DHT22;13304;48.464;8.712;2023-07-24T11:45:26;22.40;90.60
25352;DHT22;13304;48.464;8.712;2023-07-24T11:47:52;22.50;90.30
25352;DHT22;13304;48.464;8.712;2023-07-24T11:50:22;22.60;90.10
25352;DHT22;13304;48.464;8.712;2023-07-24T11:52:49;22.80;89.50
25352;DHT22;13304;48.464;8.712;2023-07-24T11:55:29;22.80;88.70
25352;DHT22;13304;48.464;8.712;2023-07-24T11:58:00;22.90;87.80
25352;DHT22;13304;48.464;8.712;2023-07-24T12:00:27;23.00;86.70
25352;DHT22;13304;48.464;8.712;2023-07-24T12:02:58;23.10;86.70
25352;DHT22;13304;48.464;8.712;2023-07-24T12:05:25;23.10;86.70
25352;DHT22;13304;48.464;8.712;2023-07-24T12:07:54;23.20;86.50
25352;DHT22;13304;48.464;8.712;2023-07-24T12:10:27;23.20;85.60
25352;DHT22;13304;48.464;8.712;2023-07-24T12:12:54;23.30;84.70
25352;DHT22;13304;48.464;8.712;2023-07-24T12:15:20;23.40;84.50
25352;DHT22;13304;48.464;8.712;2023-07-24T12:17:46;23.40;83.70
25352;DHT22;13304;48.464;8.712;2023-07-24T12:20:12;23.50;83.90
25352;DHT22;13304;48.464;8.712;2023-07-24T12:22:38;23.50;83.70
25352;DHT22;13304;48.464;8.712;2023-07-24T12:25:05;23.60;84.00
25352;DHT22;13304;48.464;8.712;2023-07-24T12:27:31;23.70;83.80
25352;DHT22;13304;48.464;8.712;2023-07-24T12:29:58;23.80;83.60
25352;DHT22;13304;48.464;8.712;2023-07-24T12:32:24;23.80;82.70
25352;DHT22;13304;48.464;8.712;2023-07-24T12:34:50;23.90;81.90
25352;DHT22;13304;48.464;8.712;2023-07-24T12:37:20;23.90;81.10
25352;DHT22;13304;48.464;8.712;2023-07-24T12:39:47;23.90;80.90
25352;DHT22;13304;48.464;8.712;2023-07-24T12:42:16;24.00;81.70
25352;DHT22;13304;48.464;8.712;2023-07-24T12:44:42;24.00;81.20
25352;DHT22;13304;48.464;8.712;2023-07-24T12:47:08;24.10;80.70
25352;DHT22;13304;48.464;8.712;2023-07-24T12:49:34;24.20;81.00
25352;DHT22;13304;48.464;8.712;2023-07-24T12:52:00;24.20;79.50
25352;DHT22;13304;48.464;8.712;2023-07-24T12:54:25;24.30;78.40
25352;DHT22;13304;48.464;8.712;2023-07-24T12:56:51;24.30;76.50
25352;DHT22;13304;48.464;8.712;2023-07-24T12:59:18;24.20;74.10
25352;DHT22;13304;48.464;8.712;2023-07-24T13:01:44;24.20;73.70
25352;DHT22;13304;48.464;8.712;2023-07-24T13:04:13;24.20;73.90
25352;DHT22;13304;48.464;8.712;2023-07-24T13:06:39;24.20;74.40
25352;DHT22;13304;48.464;8.712;2023-07-24T13:09:05;24.30;74.00
25352;DHT22;13304;48.464;8.712;2023-07-24T13:11:31;24.20;73.90
25352;DHT22;13304;48.464;8.712;2023-07-24T13:13:59;24.20;73.10
25352;DHT22;13304;48.464;8.712;2023-07-24T13:16:25;24.20;72.90
25352;DHT22;13304;48.464;8.712;2023-07-24T13:18:50;24.10;72.00
25352;DHT22;13304;48.464;8.712;2023-07-24T13:21:16;24.10;72.80
25352;DHT22;13304;48.464;8.712;2023-07-24T13:23:42;24.10;72.00
25352;DHT22;13304;48.464;8.712;2023-07-24T13:26:08;24.00;72.20
25352;DHT22;13304;48.464;8.712;2023-07-24T13:28:36;24.00;72.00
25352;DHT22;13304;48.464;8.712;2023-07-24T13:34:00;23.90;71.40
25352;DHT22;13304;48.464;8.712;2023-07-24T13:36:26;24.00;72.50
25352;DHT22;13304;48.464;8.712;2023-07-24T13:38:52;24.00;72.80
25352;DHT22;13304;48.464;8.712;2023-07-24T13:41:17;23.90;73.00
25352;DHT22;13304;48.464;8.712;2023-07-24T13:43:43;23.90;73.60
25352;DHT22;13304;48.464;8.712;2023-07-24T13:46:09;23.90;74.30
25352;DHT22;13304;48.464;8.712;2023-07-24T13:48:37;23.90;73.80
25352;DHT22;13304;48.464;8.712;2023-07-24T13:51:03;23.90;72.40
25352;DHT22;13304;48.464;8.712;2023-07-24T13:53:28;23.90;72.60
25352;DHT22;13304;48.464;8.712;2023-07-24T13:55:54;23.90;72.00
25352;DHT22;13304;48.464;8.712;2023-07-24T13:58:20;23.90;72.60
25352;DHT22;13304;48.464;8.712;2023-07-24T14:00:46;23.90;73.40
25352;DHT22;13304;48.464;8.712;2023-07-24T14:03:11;23.80;72.90
25352;DHT22;13304;48.464;8.712;2023-07-24T14:05:37;23.80;72.70
25352;DHT22;13304;48.464;8.712;2023-07-24T14:08:04;23.80;72.70
25352;DHT22;13304;48.464;8.712;2023-07-24T14:10:30;23.80;72.80
25352;DHT22;13304;48.464;8.712;2023-07-24T14:12:55;23.70;73.30
25352;DHT22;13304;48.464;8.712;2023-07-24T14:15:21;23.70;73.80
25352;DHT22;13304;48.464;8.712;2023-07-24T14:17:47;23.70;74.00
25352;DHT22;13304;48.464;8.712;2023-07-24T14:20:12;23.70;74.30
25352;DHT22;13304;48.464;8.712;2023-07-24T14:22:38;23.80;74.40
25352;DHT22;13304;48.464;8.712;2023-07-24T14:25:04;23.80;74.40
25352;DHT22;13304;48.464;8.712;2023-07-24T14:27:31;23.80;74.30
25352;DHT22;13304;48.464;8.712;2023-07-24T14:29:57;23.80;74.40
25352;DHT22;13304;48.464;8.712;2023-07-24T14:32:27;23.80;74.40
25352;DHT22;13304;48.464;8.712;2023-07-24T14:34:53;23.90;74.10
25352;DHT22;13304;48.464;8.712;2023-07-24T14:37:19;23.90;74.30
25352;DHT22;13304;48.464;8.712;2023-07-24T14:39:46;23.90;74.60
25352;DHT22;13304;48.464;8.712;2023-07-24T14:42:12;23.90;74.80
25352;DHT22;13304;48.464;8.712;2023-07-24T14:44:38;24.00;75.00
25352;DHT22;13304;48.464;8.712;2023-07-24T14:47:04;24.00;75.00
25352;DHT22;13304;48.464;8.712;2023-07-24T14:49:30;24.10;75.00
25352;DHT22;13304;48.464;8.712;2023-07-24T14:51:55;24.20;75.40
25352;DHT22;13304;48.464;8.712;2023-07-24T14:54:22;24.30;75.40
25352;DHT22;13304;48.464;8.712;2023-07-24T14:56:49;24.40;74.90
25352;DHT22;13304;48.464;8.712;2023-07-24T14:59:14;24.50;74.40
25352;DHT22;13304;48.464;8.712;2023-07-24T15:01:40;24.60;74.30
25352;DHT22;13304;48.464;8.712;2023-07-24T15:04:06;24.70;74.30
25352;DHT22;13304;48.464;8.712;2023-07-24T15:06:31;24.80;73.00
25352;DHT22;13304;48.464;8.712;2023-07-24T15:08:57;24.90;72.00
25352;DHT22;13304;48.464;8.712;2023-07-24T15:11:23;25.00;70.80
25352;DHT22;13304;48.464;8.712;2023-07-24T15:13:50;25.00;70.30
25352;DHT22;13304;48.464;8.712;2023-07-24T15:16:16;25.00;69.70
25352;DHT22;13304;48.464;8.712;2023-07-24T15:18:42;25.00;70.20
25352;DHT22;13304;48.464;8.712;2023-07-24T15:21:09;25.00;70.70
25352;DHT22;13304;48.464;8.712;2023-07-24T15:23:34;25.00;70.60
25352;DHT22;13304;48.464;8.712;2023-07-24T15:26:00;25.10;69.70
25352;DHT22;13304;48.464;8.712;2023-07-24T15:28:26;25.10;68.90
25352;DHT22;13304;48.464;8.712;2023-07-24T15:30:52;25.10;68.00
25352;DHT22;13304;48.464;8.712;2023-07-24T15:33:18;25.10;67.70
25352;DHT22;13304;48.464;8.712;2023-07-24T15:35:44;25.10;67.50